CheckWX is a tool to help pilots better visualize weather data.  It is not intended as a substitute for an official pre-flight weather briefing.

17:29:47 UTC

79J METAR
South Alabama Regional at Bill Benton Field Airport
Andalusia, Alabama, USA
Current

34 mins ago

K79J 241656Z AUTO VRB05KT 10SM CLR 23/05 A3025 RMK AO2 SLP239 T02330050
Observed
Mar-24 @ 16:56 UTC
Wind
  • Variable at 5 KTS
Visibility
10 SM
Flight Rules
VFR
Cloud Levels
  • Clear skies
Temperature
23°C / 73°F
Dewpoint
C / 41°F
Humidity
31%
Altimeter
30.25" Hg
Pressure
1023.9 hPa
Previous

2 hours ago

K79J 241556Z AUTO 14005KT 10SM CLR 22/05 A3026 RMK AO2 SLP243 T02220050
Observed
Mar-24 @ 15:56 UTC
Wind
  • 140° at 5 KTS
Visibility
10 SM
Flight Rules
VFR
Cloud Levels
  • Clear skies
Temperature
22°C / 72°F
Dewpoint
C / 41°F
Humidity
33%
Altimeter
30.26" Hg
Pressure
1024.3 hPa
Previous

3 hours ago

K79J 241456Z AUTO 07003KT 10SM CLR 21/07 A3026 RMK AO2 SLP245 T02060072 51007
Observed
Mar-24 @ 14:56 UTC
Wind
  • 070° at 3 KTS
Visibility
10 SM
Flight Rules
VFR
Cloud Levels
  • Clear skies
Temperature
21°C / 70°F
Dewpoint
C / 45°F
Humidity
40%
Altimeter
30.26" Hg
Pressure
1024.5 hPa